Latest Coastal Weather Observations for Eucla

IDW60701

Issued at 11:22 am WST Monday 22 December 2014 (issued every 10 minutes, with the page automatically refreshed every 10 minutes)

About coastal observations | Map of coastal stations | Coastal observations for WA | Marine services | Other Formats
Station Details ID: 011003 Name: EUCLA Lat: -31.68 Lon: 128.90 Height: 93.1 m
Data from the previous 72 hours. | See also: Recent months at Eucla
Date/Time
WST
Temp

°C
Wind Pressure Rain
since 9am
mm
Weather Cloud Vis
km
Sea
Height
m
Swell
Dir
 
Speed
knots
Gust
knots
hPa Trend Height
m
Period
s
Dir
22/11:00am 23.0 S 10 15 1014.9 - 0.0 - - - - - - -
22/10:30am 22.4 S 12 17 1014.6 - 0.0 - - - - - - -
22/10:00am 23.7 S 12 18 1014.7 - 0.0 - - - - - - -
22/09:30am 22.0 S 10 16 1015.1 - 0.0 - - - - - - -
22/09:00am 20.6 S 12 16 1014.9 - 0.0 - - - - - - -
22/08:30am 20.2 S 11 17 1014.7 - 0.0 - - - - - - -
22/08:00am 21.3 S 11 16 1014.2 - 0.0 - - - - - - -
22/07:30am 21.7 S 11 17 1013.9 - 0.0 - - - - - - -
22/07:00am 20.6 SSE 12 19 1013.8 - 0.0 - - - - - - -
22/06:30am 20.2 SSE 11 18 1013.7 - 0.0 - - - - - - -
22/06:00am 19.1 S 13 19 1013.2 - 0.0 - - - - - - -
22/05:30am 18.5 SSE 12 19 1012.7 - 0.0 - - - - - - -
22/05:00am 18.1 SSE 11 16 1012.5 - 0.0 - - - - - - -
22/04:30am 18.0 SSE 11 18 1012.2 - 0.0 - - - - - - -
22/04:00am 17.9 SSE 9 16 1012.0 - 0.0 - - - - - - -
22/03:30am 18.0 SSE 10 16 1011.9 - 0.0 - - - - - - -
22/03:00am 17.9 SSE 10 16 1011.9 - 0.0 - - - - - - -
22/02:30am 17.9 S 10 17 1011.7 - 0.0 - - - - - - -
22/02:00am 18.1 S 12 20 1011.7 - 0.0 - - - - - - -
22/01:30am 18.2 S 11 17 1011.7 - 0.0 - - - - - - -
22/01:00am 18.2 S 10 17 1011.6 - 0.0 - - - - - - -
22/12:30am 18.4 S 9 15 1011.4 - 0.0 - - - - - - -
22/12:00am 18.5 S 12 18 1011.4 - 0.0 - - - - - - -
 
Date/Time
WST
Temp

°C
Wind Pressure Rain
since 9am
mm
Weather Cloud Vis
km
Sea
Height
m
Swell
Dir
 
Speed
knots
Gust
knots
hPa Trend Height
m
Period
s
Dir
21/11:30pm 18.6 S 11 16 1011.8 - 0.0 - - - - - - -
21/11:00pm 18.8 SSE 10 15 1012.2 - 0.0 - - - - - - -
21/10:30pm 18.8 SSE 10 16 1012.0 - 0.0 - - - - - - -
21/10:00pm 18.8 SSE 8 13 1012.0 - 0.0 - - - - - - -
21/09:30pm 18.9 SE 9 14 1012.2 - 0.0 - - - - - - -
21/09:00pm 18.9 SE 8 14 1011.7 - 0.0 - - - - - - -
21/08:30pm 18.9 SE 9 13 1011.5 - 0.0 - - - - - - -
21/08:00pm 18.9 SE 8 12 1011.8 - 0.0 - - - - - - -
21/07:30pm 18.8 SE 10 15 1011.5 - 0.0 - - - - - - -
21/07:00pm 18.8 SSE 12 18 1010.6 - 0.0 - - - - - - -
21/06:30pm 18.9 SE 11 16 1010.5 - 0.0 - - - - - - -
21/06:00pm 19.4 SE 10 16 1010.2 - 0.0 - - - - - - -
21/05:30pm 19.7 SE 12 19 1010.1 - 0.0 - - - - - - -
21/05:00pm 19.4 SE 13 20 1009.4 - 0.0 - - - - - - -
21/04:30pm 20.8 SE 15 23 1009.5 - 0.0 - - - - - - -
21/04:00pm 20.1 SE 14 21 1009.6 - 0.0 - - - - - - -
21/03:30pm 20.9 SE 16 26 1009.3 - 0.0 - - - - - - -
21/03:00pm 21.2 SE 16 23 1009.3 - 0.0 - - - - - - -
21/02:37pm 21.4 SE 17 27 1009.6 - 0.0 - - - - - - -
21/02:30pm 21.5 SSE 17 26 1009.8 - 0.0 - - - - - - -
21/02:27pm 21.5 SSE 16 26 1009.8 - 0.0 - - - - - - -
21/02:00pm 21.6 SE 16 25 1010.1 - 0.0 - - - - - - -
21/01:44pm 21.2 SE 15 25 1010.3 - 0.0 - - - - - - -
21/01:30pm 21.4 SSE 16 23 1010.3 - 0.0 - - - - - - -
21/01:00pm 21.4 SSE 15 22 1010.2 - 0.0 - - - - - - -
21/12:30pm 21.5 SSE 15 22 1010.0 - 0.0 - - - - - - -
21/12:00pm 23.0 SSE 15 23 1009.9 - 0.0 - - - - - - -
21/11:30am 22.6 SSE 15 21 1010.1 - 0.0 - - - - - - -
21/11:00am 22.3 SSE 13 20 1010.4 - 0.0 - - - - - - -
21/10:30am 21.6 SSE 11 17 1010.4 - 0.0 - - - - - - -
21/10:00am 21.6 SSE 11 18 1010.2 - 0.0 - - - - - - -
21/09:30am 21.7 SSE 10 16 1010.0 - 0.0 - - - - - - -
21/09:00am 21.9 SE 10 16 1009.5 - 0.0 - - - - - - -
21/08:30am 21.1 SSE 11 17 1009.1 - 0.0 - - - - - - -
21/08:00am 20.9 SE 10 15 1008.7 - 0.0 - - - - - - -
21/07:30am 21.9 SSE 10 16 1008.5 - 0.0 - - - - - - -
21/07:00am 22.1 SE 10 16 1008.0 - 0.0 - - - - - - -
21/06:30am 21.1 SE 8 15 1007.9 - 0.0 - - - - - - -
21/06:00am 20.3 SE 9 14 1007.8 - 0.0 - - - - - - -
21/05:30am 19.9 SE 9 14 1007.1 - 0.0 - - - - - - -
21/05:00am 19.7 ESE 10 19 1006.3 - 0.0 - - - - - - -
21/04:30am 19.6 SE 10 16 1006.3 - 0.0 - - - - - - -
21/04:00am 19.6 SE 10 17 1006.3 - 0.0 - - - - - - -
21/03:30am 19.6 S 11 16 1007.4 - 0.0 - - - - - - -
21/03:00am 19.6 SSW 13 20 1008.5 - 0.0 - - - - - - -
21/02:30am 19.9 SSW 14 22 1008.6 - 0.0 - - - - - - -
21/02:00am 20.1 SW 12 21 1009.0 - 0.0 - - - - - - -
21/01:30am 20.7 SW 14 29 1008.8 - 0.0 - - - - - - -
21/01:29am 20.8 SW 13 29 1008.8 - 0.0 - - - - - - -
21/01:24am 20.7 SSE 10 19 1008.0 - 0.0 - - - - - - -
21/01:00am 20.5 ESE 9 15 1005.7 - 0.0 - - - - - - -
21/12:30am 20.9 E 9 14 1006.3 - 0.0 - - - - - - -
21/12:00am 20.7 E 11 18 1006.4 - 0.0 - - - - - - -
 
Date/Time
WST
Temp

°C
Wind Pressure Rain
since 9am
mm
Weather Cloud Vis
km
Sea
Height
m
Swell
Dir
 
Speed
knots
Gust
knots
hPa Trend Height
m
Period
s
Dir
20/11:30pm 20.5 E 10 14 1006.8 - 0.0 - - - - - - -
20/11:00pm 20.7 E 11 20 1007.0 - 0.0 - - - - - - -
20/10:30pm 21.3 E 12 19 1007.1 - 0.0 - - - - - - -
20/10:00pm 22.9 E 12 17 1007.1 - 0.0 - - - - - - -
20/09:30pm 22.2 ENE 12 20 1006.9 - 0.0 - - - - - - -
20/09:00pm 22.1 E 11 17 1006.9 - 0.0 - - - - - - -
20/08:30pm 21.6 E 14 22 1007.1 - 0.0 - - - - - - -
20/08:00pm 22.2 E 14 19 1006.5 - 0.0 - - - - - - -
20/07:30pm 22.0 E 12 19 1006.7 - 0.0 - - - - - - -
20/07:00pm 22.6 E 13 19 1006.7 - 0.0 - - - - - - -
20/06:30pm 23.3 E 14 21 1006.5 - 0.0 - - - - - - -
20/06:00pm 23.7 E 13 19 1006.3 - 0.0 - - - - - - -
20/05:30pm 24.5 E 13 21 1006.4 - 0.0 - - - - - - -
20/05:00pm 25.2 E 13 19 1006.5 - 0.0 - - - - - - -
20/04:30pm 25.2 ESE 12 19 1006.6 - 0.0 - - - - - - -
20/04:00pm 24.6 E 13 19 1007.1 - 0.0 - - - - - - -
20/03:30pm 24.0 ESE 12 19 1007.9 - 0.0 - - - - - - -
20/03:00pm 24.5 ESE 12 18 1008.2 - 0.0 - - - - - - -
20/02:30pm 24.1 ESE 11 17 1008.5 - 0.0 - - - - - - -
20/02:00pm 23.5 ESE 12 17 1008.9 - 0.0 - - - - - - -
20/01:30pm 23.5 ESE 13 19 1009.5 - 0.0 - - - - - - -
20/01:00pm 24.9 ESE 13 20 1009.9 - 0.0 - - - - - - -
20/12:30pm 24.2 ESE 12 17 1010.4 - 0.0 - - - - - - -
20/12:00pm 24.5 ESE 13 18 1011.1 - 0.0 - - - - - - -
20/11:30am 24.3 ESE 12 16 1011.8 - 0.0 - - - - - - -
20/11:00am 24.4 ESE 10 15 1012.5 - 0.0 - - - - - - -
20/10:30am 24.5 ESE 11 16 1013.0 - 0.0 - - - - - - -
20/10:00am 24.0 ESE 11 16 1013.4 - 0.0 - - - - - - -
20/09:30am 24.5 ESE 11 15 1013.9 - 0.0 - - - - - - -
20/09:00am 24.0 SE 10 14 1014.4 - 0.0 - - - - - - -
20/08:30am 24.0 ESE 8 12 1014.7 - 0.0 - - - - - - -
20/08:00am 23.6 ENE 7 10 1015.3 - 0.0 - - - - - - -
20/07:30am 24.0 NE 8 12 1015.5 - 0.0 - - - - - - -
20/07:00am 22.3 NE 9 16 1015.1 - 0.0 - - - - - - -
20/06:30am 20.3 ENE 11 16 1015.4 - 0.0 - - - - - - -
20/06:00am 18.5 NE 10 16 1015.4 - 0.0 - - - - - - -
20/05:30am 16.7 NE 8 14 1015.3 - 0.0 - - - - - - -
20/05:00am 15.2 NE 8 12 1015.4 - 0.0 - - - - - - -
20/04:30am 15.6 ENE 7 10 1015.4 - 0.0 - - - - - - -
20/04:00am 15.4 NNE 7 10 1015.3 - 0.0 - - - - - - -
20/03:30am 15.7 ENE 7 9 1015.0 - 0.0 - - - - - - -
20/03:00am 15.7 E 7 9 1015.0 - 0.0 - - - - - - -
20/02:30am 15.3 ENE 7 10 1015.4 - 0.0 - - - - - - -
20/02:00am 15.1 ENE 6 9 1015.8 - 0.0 - - - - - - -
20/01:30am 15.1 ENE 6 8 1015.9 - 0.0 - - - - - - -
20/01:00am 15.4 ENE 6 9 1016.0 - 0.0 - - - - - - -
20/12:30am 15.5 ENE 6 8 1016.4 - 0.0 - - - - - - -
20/12:00am 15.6 ENE 5 7 1016.8 - 0.0 - - - - - - -
 
Date/Time
WST
Temp

°C
Wind Pressure Rain
since 9am
mm
Weather Cloud Vis
km
Sea
Height
m
Swell
Dir
 
Speed
knots
Gust
knots
hPa Trend Height
m
Period
s
Dir
19/11:30pm 16.1 ENE 6 7 1017.1 - 0.0 - - - - - - -
19/11:00pm 16.8 E 7 9 1017.3 - 0.0 - - - - - - -
19/10:30pm 17.0 ENE 7 10 1017.6 - 0.0 - - - - - - -
19/10:00pm 17.4 E 8 15 1017.6 - 0.0 - - - - - - -
19/09:30pm 17.3 E 9 16 1017.5 - 0.0 - - - - - - -
19/09:00pm 17.5 E 11 16 1017.5 - 0.0 - - - - - - -
19/08:30pm 17.7 E 11 15 1017.4 - 0.0 - - - - - - -
19/08:00pm 17.8 E 11 17 1017.3 - 0.0 - - - - - - -
19/07:30pm 17.9 ESE 13 20 1017.1 - 0.0 - - - - - - -
19/07:00pm 17.9 ESE 12 18 1017.0 - 0.0 - - - - - - -
19/06:30pm 18.1 ESE 13 20 1017.2 - 0.0 - - - - - - -
19/06:00pm 18.6 ESE 15 22 1017.4 - 0.0 - - - - - - -
19/05:30pm 19.3 ESE 13 20 1017.3 - 0.0 - - - - - - -
19/05:00pm 19.5 ESE 13 20 1017.5 - 0.0 - - - - - - -
19/04:30pm 20.1 ESE 15 20 1017.6 - 0.0 - - - - - - -
19/04:00pm 20.3 ESE 14 22 1017.7 - 0.0 - - - - - - -
19/03:48pm 20.9 SE 15 25 1017.7 - 0.0 - - - - - - -
19/03:30pm 21.0 ESE 15 22 1017.9 - 0.0 - - - - - - -
19/03:00pm 21.3 SE 15 20 1018.0 - 0.0 Haze Clear 25 - - - -
19/02:30pm 21.4 SE 14 18 1018.4 - 0.0 - - - - - - -
19/02:00pm 21.9 ESE 13 19 1018.8 - 0.0 - - - - - - -
19/01:30pm 22.1 ESE 13 21 1019.0 - 0.0 - - - - - - -
19/01:00pm 22.0 SE 13 20 1019.2 - 0.0 - - - - - - -
19/12:30pm 22.3 SE 12 19 1019.5 - 0.0 - - - - - - -
19/12:00pm 23.0 SE 13 18 1019.9 - 0.0 - - - - - - -
19/11:30am 22.9 ESE 12 17 1020.2 - 0.0 - - - - - - -

Other Formats:

Comma delimited format used in spreadsheet applications
http://www.bom.gov.au/fwo/IDW60701/IDW60701.94647.axf

JavaScript Object Notation format (JSON) in row-major order
http://www.bom.gov.au/fwo/IDW60701/IDW60701.94647.json